Time;durP1;ratioP1;P1;durP2;ratioP2;P2;SDS_P1;SDS_P2;PMS_P1;PMS_P2;Temp;Humidity;BMP_temperature;BMP_pressure;BME280_temperature;BME280_humidity;BME280_pressure;Samples;Min_cycle;Max_cycle;Signal;HPM_P1;HPM_P2
2024/02/07 00:02:06;;;;;;;3.58;1.30;;;;;;;;;;5034272;28;20506;-79
2024/02/07 00:04:32;;;;;;;4.68;1.75;;;;;;;;;;5032811;28;20064;-80
2024/02/07 00:06:59;;;;;;;3.95;2.13;;;;;;;;;;5067742;28;20106;-78
2024/02/07 00:09:26;;;;;;;4.55;1.75;;;;;;;;;;5035731;28;20132;-78
2024/02/07 00:11:52;;;;;;;3.53;1.45;;;;;;;;;;5052572;28;20060;-79
2024/02/07 00:14:19;;;;;;;1.85;1.35;;;;;;;;;;5052906;28;20044;-79
2024/02/07 00:16:46;;;;;;;3.47;1.40;;;;;;;;;;5051525;28;20076;-79
2024/02/07 00:19:12;;;;;;;3.40;1.42;;;;;;;;;;5050833;28;20414;-78
2024/02/07 00:21:39;;;;;;;3.33;1.75;;;;;;;;;;5051263;28;20080;-79
2024/02/07 00:24:06;;;;;;;4.75;1.42;;;;;;;;;;5069808;28;20053;-79
2024/02/07 00:26:36;;;;;;;3.47;1.77;;;;;;;;;;5051379;28;20075;-78
2024/02/07 00:29:02;;;;;;;3.78;1.70;;;;;;;;;;5036039;28;20457;-79
2024/02/07 00:31:29;;;;;;;5.68;1.83;;;;;;;;;;5052027;28;20049;-78
2024/02/07 00:33:56;;;;;;;4.53;1.65;;;;;;;;;;5067844;28;20048;-79
2024/02/07 00:36:23;;;;;;;2.10;1.50;;;;;;;;;;5052774;28;20453;-78
2024/02/07 00:38:49;;;;;;;3.20;1.50;;;;;;;;;;5031294;28;20065;-78
2024/02/07 00:41:22;;;;;;;2.25;1.65;;;;;;;;;;5066730;28;20075;-78
2024/02/07 00:43:49;;;;;;;2.17;1.35;;;;;;;;;;5035633;28;20075;-80
2024/02/07 00:46:16;;;;;;;3.35;1.98;;;;;;;;;;5052541;28;20570;-79
2024/02/07 00:48:43;;;;;;;4.72;1.70;;;;;;;;;;5049530;28;20053;-78
2024/02/07 00:51:10;;;;;;;3.25;1.30;;;;;;;;;;5052221;28;20049;-79
2024/02/07 00:53:37;;;;;;;3.33;1.55;;;;;;;;;;5050958;28;20556;-79
2024/02/07 00:56:04;;;;;;;2.70;1.42;;;;;;;;;;5067604;28;20044;-79
2024/02/07 00:58:31;;;;;;;3.08;1.58;;;;;;;;;;5067829;28;20053;-78
2024/02/07 01:00:57;;;;;;;2.83;1.55;;;;;;;;;;5049837;28;20053;-78
2024/02/07 01:03:24;;;;;;;2.85;1.60;;;;;;;;;;5066792;28;20095;-78
2024/02/07 01:05:51;;;;;;;3.40;2.17;;;;;;;;;;5051564;28;20523;-79
2024/02/07 01:08:18;;;;;;;2.97;1.38;;;;;;;;;;5069025;28;20109;-79
2024/02/07 01:10:45;;;;;;;2.15;1.42;;;;;;;;;;5067370;28;20057;-79
2024/02/07 01:13:12;;;;;;;3.17;1.50;;;;;;;;;;5054135;28;20465;-79
2024/02/07 01:15:39;;;;;;;2.20;1.52;;;;;;;;;;5057971;28;20061;-78
2024/02/07 01:18:06;;;;;;;1.88;1.35;;;;;;;;;;5064500;28;20053;-79
2024/02/07 01:20:33;;;;;;;3.35;1.55;;;;;;;;;;5063572;28;20109;-79
2024/02/07 01:23:00;;;;;;;4.22;1.80;;;;;;;;;;5050388;28;20080;-78
2024/02/07 01:25:27;;;;;;;6.78;1.70;;;;;;;;;;5035182;28;20123;-79
2024/02/07 01:27:54;;;;;;;3.53;1.20;;;;;;;;;;5051159;28;20346;-78
2024/02/07 01:30:21;;;;;;;3.92;1.83;;;;;;;;;;5035604;28;20049;-78
2024/02/07 01:32:48;;;;;;;2.10;1.52;;;;;;;;;;5052160;28;20502;-79
2024/02/07 01:35:15;;;;;;;2.10;1.35;;;;;;;;;;5067970;28;20045;-79
2024/02/07 01:37:42;;;;;;;3.88;1.38;;;;;;;;;;5037054;28;20118;-79
2024/02/07 01:40:11;;;;;;;3.38;2.20;;;;;;;;;;5034759;28;20053;-79
2024/02/07 01:42:38;;;;;;;3.22;1.48;;;;;;;;;;5050514;28;20053;-79
2024/02/07 01:45:25;;;;;;;3.55;2.15;;;;;;;;;;5068299;28;20458;-78
2024/02/07 01:47:52;;;;;;;2.00;1.20;;;;;;;;;;5032365;28;20044;-78
2024/02/07 01:50:19;;;;;;;3.45;1.52;;;;;;;;;;5052263;28;20069;-80
2024/02/07 01:52:46;;;;;;;1.58;1.33;;;;;;;;;;5036272;28;20049;-80
2024/02/07 01:55:13;;;;;;;2.78;1.55;;;;;;;;;;5052370;28;20476;-80
2024/02/07 01:57:40;;;;;;;4.05;1.63;;;;;;;;;;5039710;28;20063;-78
2024/02/07 02:00:07;;;;;;;2.13;1.42;;;;;;;;;;5056558;28;20536;-78
2024/02/07 02:02:34;;;;;;;6.22;1.67;;;;;;;;;;5072565;28;20048;-79
2024/02/07 02:05:01;;;;;;;2.88;1.70;;;;;;;;;;5057374;28;20057;-79
2024/02/07 02:07:27;;;;;;;2.28;1.40;;;;;;;;;;5061545;28;20049;-79
2024/02/07 02:09:54;;;;;;;3.22;1.77;;;;;;;;;;5038995;28;20045;-79
2024/02/07 02:12:21;;;;;;;3.88;1.77;;;;;;;;;;5059800;28;20507;-79
2024/02/07 02:14:48;;;;;;;3.58;1.70;;;;;;;;;;5040595;28;20052;-79
2024/02/07 02:17:14;;;;;;;2.60;1.90;;;;;;;;;;5052268;28;20045;-79
2024/02/07 02:19:42;;;;;;;4.25;2.03;;;;;;;;;;5042962;28;20054;-79
2024/02/07 02:22:17;;;;;;;5.47;2.03;;;;;;;;;;5059501;28;20575;-79
2024/02/07 02:24:48;;;;;;;6.68;1.70;;;;;;;;;;5058157;28;20497;-79
2024/02/07 02:27:24;;;;;;;5.18;1.40;;;;;;;;;;5055160;28;20053;-79
2024/02/07 02:29:53;;;;;;;2.35;1.42;;;;;;;;;;5055825;28;20061;-79
2024/02/07 02:32:21;;;;;;;4.28;1.67;;;;;;;;;;5053808;28;20601;-79
2024/02/07 02:34:49;;;;;;;2.95;1.48;;;;;;;;;;5039514;28;20063;-79
2024/02/07 02:37:16;;;;;;;3.35;1.58;;;;;;;;;;5038174;28;20053;-79
2024/02/07 02:39:43;;;;;;;3.75;1.63;;;;;;;;;;5040006;28;20505;-79
2024/02/07 02:42:10;;;;;;;4.05;1.45;;;;;;;;;;5055081;28;20049;-78
2024/02/07 02:44:36;;;;;;;5.40;1.50;;;;;;;;;;5055488;28;20052;-79
2024/02/07 02:47:03;;;;;;;4.07;1.70;;;;;;;;;;5038040;28;20056;-79
2024/02/07 02:49:30;;;;;;;3.90;1.60;;;;;;;;;;5054284;28;20116;-79
2024/02/07 02:51:57;;;;;;;4.63;2.17;;;;;;;;;;5073558;28;20052;-79
2024/02/07 02:54:24;;;;;;;5.00;1.63;;;;;;;;;;5037512;28;20099;-79
2024/02/07 02:56:51;;;;;;;4.95;1.70;;;;;;;;;;5038445;28;20052;-79
2024/02/07 02:59:18;;;;;;;2.25;1.55;;;;;;;;;;5042452;28;20071;-79
2024/02/07 03:01:45;;;;;;;2.83;1.52;;;;;;;;;;5039800;28;20517;-79
2024/02/07 03:04:15;;;;;;;3.03;1.80;;;;;;;;;;5082958;28;20093;-80
2024/02/07 03:07:13;;;;;;;3.20;1.67;;;;;;;;;;5085683;28;20083;-79
2024/02/07 03:09:48;;;;;;;5.40;1.48;;;;;;;;;;5074830;28;20108;-79
2024/02/07 03:12:16;;;;;;;4.78;1.58;;;;;;;;;;5058454;28;20049;-80
2024/02/07 03:14:42;;;;;;;2.42;1.33;;;;;;;;;;5041527;28;20048;-79
2024/02/07 03:17:09;;;;;;;2.72;1.73;;;;;;;;;;5036302;28;20049;-80
2024/02/07 03:19:35;;;;;;;4.43;1.52;;;;;;;;;;5055138;28;20061;-80
2024/02/07 03:22:02;;;;;;;2.80;1.52;;;;;;;;;;5057040;28;20057;-79
2024/02/07 03:24:29;;;;;;;3.30;1.60;;;;;;;;;;5055782;28;20110;-79
2024/02/07 03:26:56;;;;;;;2.63;1.73;;;;;;;;;;5049116;28;20045;-79
2024/02/07 03:29:23;;;;;;;7.43;1.42;;;;;;;;;;5052885;28;20075;-79
2024/02/07 03:31:49;;;;;;;1.40;1.30;;;;;;;;;;5070407;28;20064;-80
2024/02/07 03:34:16;;;;;;;1.90;1.25;;;;;;;;;;5070538;28;20123;-80
2024/02/07 03:36:43;;;;;;;4.78;1.67;;;;;;;;;;5046940;28;20084;-81
2024/02/07 03:39:10;;;;;;;1.83;1.30;;;;;;;;;;5053742;28;20549;-81
2024/02/07 03:41:36;;;;;;;2.13;1.35;;;;;;;;;;5053731;28;20056;-80
2024/02/07 03:44:08;;;;;;;3.25;1.63;;;;;;;;;;5038092;28;20049;-81
2024/02/07 03:46:35;;;;;;;2.23;1.60;;;;;;;;;;5038148;28;20053;-80
2024/02/07 03:49:02;;;;;;;2.40;1.33;;;;;;;;;;5054041;28;20299;-80
2024/02/07 03:51:29;;;;;;;5.05;2.00;;;;;;;;;;5052343;28;20059;-78
2024/02/07 03:53:56;;;;;;;5.45;1.75;;;;;;;;;;5072142;28;20061;-80
2024/02/07 03:56:23;;;;;;;2.70;1.45;;;;;;;;;;5038033;28;20473;-79
2024/02/07 03:58:49;;;;;;;6.97;2.08;;;;;;;;;;5068138;28;20037;-80
2024/02/07 04:01:18;;;;;;;1.50;1.17;;;;;;;;;;5061577;28;20048;-79
2024/02/07 04:03:47;;;;;;;1.45;1.00;;;;;;;;;;5059909;28;20041;-79
2024/02/07 04:06:15;;;;;;;4.07;1.60;;;;;;;;;;5051786;28;20033;-78
2024/02/07 04:08:42;;;;;;;3.25;1.35;;;;;;;;;;5052191;28;20088;-78
2024/02/07 05:16:54;;;;;;;2.42;1.27;;;;;;;;;;5048926;28;20494;-78
2024/02/07 05:19:21;;;;;;;3.15;1.15;;;;;;;;;;5071372;28;20052;-77
2024/02/07 05:21:48;;;;;;;2.65;1.50;;;;;;;;;;5056422;28;20071;-77
2024/02/07 05:24:16;;;;;;;3.72;1.38;;;;;;;;;;5068827;28;20071;-78
2024/02/07 05:26:42;;;;;;;2.80;1.13;;;;;;;;;;5038007;28;20052;-78
2024/02/07 05:29:12;;;;;;;3.03;1.35;;;;;;;;;;5070254;28;20079;-78
2024/02/07 05:31:38;;;;;;;1.85;1.10;;;;;;;;;;5053488;28;20056;-78
2024/02/07 05:34:06;;;;;;;1.30;1.13;;;;;;;;;;5057048;28;20067;-78
2024/02/07 05:36:33;;;;;;;1.83;1.15;;;;;;;;;;5043847;28;20049;-78
2024/02/07 05:38:59;;;;;;;5.65;1.50;;;;;;;;;;5058359;28;20044;-78
2024/02/07 05:41:26;;;;;;;2.45;1.55;;;;;;;;;;5057185;28;20053;-76
2024/02/07 05:43:59;;;;;;;2.63;1.95;;;;;;;;;;5039071;28;20135;-78
2024/02/07 05:46:26;;;;;;;5.05;2.20;;;;;;;;;;5055255;28;20147;-78
2024/02/07 05:48:52;;;;;;;1.60;1.30;;;;;;;;;;5056820;28;20053;-77
2024/02/07 05:51:22;;;;;;;3.60;1.40;;;;;;;;;;5056440;28;20073;-78
2024/02/07 05:53:49;;;;;;;2.92;1.70;;;;;;;;;;5063390;28;20049;-78
2024/02/07 05:56:15;;;;;;;4.22;1.48;;;;;;;;;;5057008;28;20049;-77
2024/02/07 05:58:42;;;;;;;3.83;1.45;;;;;;;;;;5054054;28;20064;-77
2024/02/07 06:01:10;;;;;;;3.15;1.92;;;;;;;;;;5073340;28;20063;-77
2024/02/07 06:03:37;;;;;;;4.53;1.73;;;;;;;;;;5072147;28;20056;-78
2024/02/07 06:06:06;;;;;;;5.93;1.60;;;;;;;;;;5073162;28;20122;-78
2024/02/07 06:08:33;;;;;;;4.38;1.60;;;;;;;;;;5053928;28;20051;-77
2024/02/07 06:11:00;;;;;;;3.08;1.50;;;;;;;;;;5056244;28;20495;-77
2024/02/07 06:13:26;;;;;;;3.63;1.40;;;;;;;;;;5072712;28;20060;-76
2024/02/07 06:15:53;;;;;;;2.20;1.50;;;;;;;;;;5039005;28;20106;-77
2024/02/07 06:18:20;;;;;;;2.20;1.60;;;;;;;;;;5071183;28;20049;-77
2024/02/07 06:20:46;;;;;;;3.03;1.83;;;;;;;;;;5073447;28;20417;-76
2024/02/07 06:23:13;;;;;;;4.05;1.55;;;;;;;;;;5073355;28;20080;-77
2024/02/07 06:25:40;;;;;;;3.40;2.00;;;;;;;;;;5073464;28;20107;-78
2024/02/07 06:28:07;;;;;;;5.03;2.05;;;;;;;;;;5040347;28;20047;-78
2024/02/07 06:30:33;;;;;;;1.95;1.65;;;;;;;;;;5053512;28;20045;-78
2024/02/07 06:33:00;;;;;;;3.05;1.65;;;;;;;;;;5052402;28;20574;-78
2024/02/07 06:35:27;;;;;;;4.38;1.52;;;;;;;;;;5053175;28;20040;-76
2024/02/07 06:37:54;;;;;;;2.97;1.73;;;;;;;;;;5054527;28;20053;-78
2024/02/07 06:40:20;;;;;;;2.22;1.80;;;;;;;;;;5070903;28;20056;-78
2024/02/07 06:42:47;;;;;;;7.78;1.95;;;;;;;;;;5070778;28;20057;-82
2024/02/07 06:45:14;;;;;;;3.33;1.42;;;;;;;;;;5055148;28;20048;-79
2024/02/07 06:47:40;;;;;;;2.53;1.60;;;;;;;;;;5071730;28;20095;-78
2024/02/07 06:50:08;;;;;;;3.55;1.90;;;;;;;;;;5070484;28;20063;-78
2024/02/07 06:52:35;;;;;;;3.55;2.10;;;;;;;;;;5055529;28;20127;-77
2024/02/07 06:55:02;;;;;;;3.55;1.95;;;;;;;;;;5073217;28;20048;-78
2024/02/07 06:57:28;;;;;;;3.50;1.92;;;;;;;;;;5056498;28;20084;-78
2024/02/07 06:59:55;;;;;;;3.47;1.88;;;;;;;;;;5068074;28;20123;-79
2024/02/07 07:02:22;;;;;;;3.17;2.00;;;;;;;;;;5054919;28;20061;-78
2024/02/07 07:04:49;;;;;;;3.80;2.13;;;;;;;;;;5054111;28;20049;-78
2024/02/07 07:07:15;;;;;;;4.15;1.80;;;;;;;;;;5073725;28;20120;-78
2024/02/07 07:09:42;;;;;;;5.53;2.30;;;;;;;;;;5051500;28;20067;-78
2024/02/07 07:12:09;;;;;;;3.60;2.25;;;;;;;;;;5073097;28;20052;-83
2024/02/07 07:14:40;;;;;;;4.75;1.98;;;;;;;;;;5053924;28;20056;-78
2024/02/07 07:17:07;;;;;;;5.65;2.20;;;;;;;;;;5066446;28;20064;-76
2024/02/07 07:19:34;;;;;;;4.50;2.55;;;;;;;;;;5062550;28;20107;-78
2024/02/07 07:22:00;;;;;;;2.58;1.85;;;;;;;;;;5066913;28;20091;-77
2024/02/07 07:24:27;;;;;;;4.18;2.00;;;;;;;;;;5051015;28;20474;-76
2024/02/07 07:26:54;;;;;;;6.18;2.78;;;;;;;;;;5065343;28;20045;-77
2024/02/07 07:29:22;;;;;;;3.70;1.98;;;;;;;;;;5066307;28;20041;-77
2024/02/07 07:31:48;;;;;;;5.55;2.25;;;;;;;;;;5046317;28;20053;-76
2024/02/07 07:34:15;;;;;;;3.47;2.25;;;;;;;;;;5041915;28;20087;-76
2024/02/07 07:36:42;;;;;;;5.90;2.20;;;;;;;;;;5036580;28;20146;-76
2024/02/07 07:39:10;;;;;;;5.63;2.03;;;;;;;;;;5065726;28;20451;-75
2024/02/07 07:41:39;;;;;;;4.72;2.15;;;;;;;;;;5064479;28;20056;-77
2024/02/07 07:44:06;;;;;;;6.38;2.50;;;;;;;;;;5065769;28;20056;-76
2024/02/07 07:46:33;;;;;;;6.07;2.55;;;;;;;;;;5065255;28;20056;-76
2024/02/07 07:49:00;;;;;;;2.97;1.75;;;;;;;;;;5066025;28;20048;-77
2024/02/07 07:51:26;;;;;;;4.15;1.90;;;;;;;;;;5058591;28;20048;-76
2024/02/07 07:53:54;;;;;;;4.45;1.70;;;;;;;;;;5086059;28;20079;-76
2024/02/07 07:56:23;;;;;;;5.40;2.00;;;;;;;;;;5089057;28;20033;-78
2024/02/07 07:58:50;;;;;;;3.03;1.80;;;;;;;;;;5066033;28;20052;-77
2024/02/07 08:01:21;;;;;;;6.07;2.17;;;;;;;;;;5068278;28;20045;-78
2024/02/07 08:03:52;;;;;;;5.00;2.10;;;;;;;;;;5053926;28;20141;-77
2024/02/07 08:06:19;;;;;;;4.30;1.83;;;;;;;;;;5036778;28;20049;-78
2024/02/07 08:08:46;;;;;;;4.32;1.92;;;;;;;;;;5044375;28;20056;-79
2024/02/07 08:11:13;;;;;;;5.60;2.30;;;;;;;;;;5026420;28;20053;-79
2024/02/07 08:13:39;;;;;;;3.17;1.70;;;;;;;;;;5052066;28;20114;-79
2024/02/07 08:16:06;;;;;;;5.00;2.10;;;;;;;;;;5046691;28;20112;-80
2024/02/07 08:18:34;;;;;;;4.78;2.03;;;;;;;;;;5048655;28;20436;-78
2024/02/07 08:21:02;;;;;;;5.00;2.15;;;;;;;;;;5034412;28;20559;-78
2024/02/07 08:23:29;;;;;;;4.75;1.92;;;;;;;;;;5041412;28;20054;-77
2024/02/07 08:25:56;;;;;;;5.07;1.50;;;;;;;;;;5055011;28;20058;-78
2024/02/07 08:28:23;;;;;;;4.43;2.00;;;;;;;;;;5040267;28;20136;-78
2024/02/07 08:30:49;;;;;;;5.85;1.80;;;;;;;;;;5046820;28;21244;-79
2024/02/07 08:33:16;;;;;;;3.05;1.75;;;;;;;;;;5026212;28;20053;-78
2024/02/07 08:35:46;;;;;;;4.53;2.15;;;;;;;;;;5042824;28;20063;-78
2024/02/07 08:38:12;;;;;;;5.97;2.20;;;;;;;;;;5030363;28;20049;-78
2024/02/07 08:40:39;;;;;;;5.50;2.28;;;;;;;;;;5048889;28;20049;-78
2024/02/07 08:43:07;;;;;;;3.63;1.77;;;;;;;;;;5046058;28;20049;-78
2024/02/07 08:45:35;;;;;;;3.35;1.90;;;;;;;;;;5050510;28;20136;-78
2024/02/07 08:48:02;;;;;;;9.05;1.80;;;;;;;;;;5027967;28;20162;-78
2024/02/07 08:50:29;;;;;;;3.70;1.75;;;;;;;;;;5045803;28;20049;-78
2024/02/07 08:52:56;;;;;;;3.95;1.85;;;;;;;;;;5049520;28;20080;-79
2024/02/07 08:55:22;;;;;;;3.97;1.90;;;;;;;;;;5039908;28;20096;-78
2024/02/07 08:57:49;;;;;;;3.67;1.50;;;;;;;;;;5050113;28;20049;-79
2024/02/07 09:00:16;;;;;;;5.45;1.95;;;;;;;;;;5050487;28;20132;-77
2024/02/07 09:02:45;;;;;;;2.60;1.60;;;;;;;;;;5044742;28;20048;-78
2024/02/07 09:05:12;;;;;;;4.90;1.90;;;;;;;;;;5048981;28;20114;-78
2024/02/07 09:07:39;;;;;;;5.57;1.77;;;;;;;;;;5049708;28;20055;-78
2024/02/07 09:10:06;;;;;;;6.00;1.50;;;;;;;;;;5047839;28;20056;-77
2024/02/07 09:12:33;;;;;;;5.53;2.55;;;;;;;;;;5049323;28;20404;-77
2024/02/07 09:15:00;;;;;;;3.53;1.58;;;;;;;;;;5047154;28;20048;-77
2024/02/07 09:17:26;;;;;;;3.60;1.55;;;;;;;;;;5049845;28;20052;-78
2024/02/07 09:19:53;;;;;;;5.03;2.20;;;;;;;;;;5042562;28;20132;-77
2024/02/07 09:22:20;;;;;;;3.30;1.80;;;;;;;;;;5052215;28;20077;-77
2024/02/07 09:24:47;;;;;;;4.70;1.77;;;;;;;;;;5040871;28;20064;-77
2024/02/07 09:27:13;;;;;;;5.32;2.40;;;;;;;;;;5049721;28;20048;-77
2024/02/07 09:29:40;;;;;;;9.55;6.15;;;;;;;;;;5042913;28;20052;-77
2024/02/07 09:32:07;;;;;;;5.50;2.13;;;;;;;;;;5039182;28;20045;-78
2024/02/07 09:34:34;;;;;;;8.13;4.15;;;;;;;;;;5048016;28;20052;-77
2024/02/07 09:37:01;;;;;;;3.28;2.33;;;;;;;;;;5049237;28;20132;-78
2024/02/07 09:39:28;;;;;;;3.17;1.80;;;;;;;;;;5046772;28;20045;-78
2024/02/07 09:41:56;;;;;;;5.70;2.60;;;;;;;;;;5050148;28;20529;-78
2024/02/07 09:44:25;;;;;;;7.13;1.80;;;;;;;;;;5048831;28;20112;-77
2024/02/07 09:46:53;;;;;;;5.97;1.88;;;;;;;;;;5044602;28;20053;-77
2024/02/07 09:49:24;;;;;;;7.78;1.67;;;;;;;;;;5045891;28;20217;-77
2024/02/07 09:51:52;;;;;;;3.45;1.70;;;;;;;;;;5048271;28;20056;-77
2024/02/07 09:54:19;;;;;;;2.92;1.92;;;;;;;;;;5048228;28;20052;-77
2024/02/07 09:56:46;;;;;;;5.13;3.13;;;;;;;;;;5039963;28;20049;-77
2024/02/07 09:59:13;;;;;;;10.40;5.00;;;;;;;;;;5048640;28;20106;-77
2024/02/07 10:01:44;;;;;;;10.07;3.90;;;;;;;;;;5047483;28;20503;-78
2024/02/07 10:04:22;;;;;;;7.28;3.40;;;;;;;;;;5031626;28;20059;-77
2024/02/07 10:06:51;;;;;;;6.57;3.25;;;;;;;;;;5051308;28;20061;-78
2024/02/07 10:09:18;;;;;;;10.63;3.08;;;;;;;;;;5049060;28;20056;-78
2024/02/07 10:11:45;;;;;;;5.88;2.85;;;;;;;;;;5032789;28;20052;-77
2024/02/07 10:14:12;;;;;;;4.63;1.85;;;;;;;;;;5030383;28;20051;-78
2024/02/07 10:16:39;;;;;;;7.72;1.80;;;;;;;;;;5045081;28;20053;-77
2024/02/07 10:19:06;;;;;;;5.70;2.17;;;;;;;;;;5039609;28;20071;-77
2024/02/07 10:21:36;;;;;;;3.83;1.70;;;;;;;;;;5039513;28;20063;-77
2024/02/07 10:24:03;;;;;;;3.63;1.55;;;;;;;;;;5029175;28;20128;-77
2024/02/07 10:26:30;;;;;;;2.47;1.50;;;;;;;;;;5046722;28;20045;-77
2024/02/07 10:29:00;;;;;;;3.17;1.83;;;;;;;;;;5027143;28;20049;-77
2024/02/07 10:31:27;;;;;;;5.07;1.75;;;;;;;;;;5060681;28;20479;-77
2024/02/07 10:34:00;;;;;;;4.43;1.92;;;;;;;;;;5049924;28;20049;-77
2024/02/07 10:36:27;;;;;;;;;;;;;;;;;;5033602;28;20071;-77
2024/02/07 10:39:01;;;;;;;3.85;1.58;;;;;;;;;;5064840;28;19921;-77
2024/02/07 10:41:28;;;;;;;2.05;1.38;;;;;;;;;;5048497;28;20053;-77
2024/02/07 10:44:07;;;;;;;5.82;1.50;;;;;;;;;;5044130;28;20052;-77
2024/02/07 10:46:34;;;;;;;4.25;1.58;;;;;;;;;;5044374;28;20049;-77
2024/02/07 10:49:01;;;;;;;5.38;1.55;;;;;;;;;;5026196;28;20131;-77
2024/02/07 10:51:31;;;;;;;2.08;1.20;;;;;;;;;;5041606;28;20447;-77
2024/02/07 10:54:07;;;;;;;4.43;1.75;;;;;;;;;;5043114;28;20045;-77
2024/02/07 10:56:35;;;;;;;6.85;1.95;;;;;;;;;;5032205;28;20042;-77
2024/02/07 10:59:03;;;;;;;2.55;1.27;;;;;;;;;;5027305;28;20511;-77
2024/02/07 11:01:31;;;;;;;2.30;1.48;;;;;;;;;;5044533;28;20060;-77
2024/02/07 11:03:58;;;;;;;1.83;1.52;;;;;;;;;;5047834;28;20053;-77
2024/02/07 11:06:25;;;;;;;2.85;1.60;;;;;;;;;;5047386;28;20049;-77
2024/02/07 11:08:54;;;;;;;5.03;1.42;;;;;;;;;;5050754;28;20045;-77
2024/02/07 11:11:21;;;;;;;3.60;1.20;;;;;;;;;;5048245;28;20506;-77
2024/02/07 11:13:48;;;;;;;2.42;1.58;;;;;;;;;;5052850;28;20051;-76
2024/02/07 11:16:15;;;;;;;2.30;1.52;;;;;;;;;;5051928;28;20053;-77
2024/02/07 11:18:41;;;;;;;3.55;1.38;;;;;;;;;;5063339;28;20120;-79
2024/02/07 11:21:08;;;;;;;2.75;1.10;;;;;;;;;;5026343;28;20049;-77
2024/02/07 11:23:36;;;;;;;4.10;1.60;;;;;;;;;;5047579;28;20057;-77
2024/02/07 11:26:03;;;;;;;3.60;1.00;;;;;;;;;;5051404;28;20049;-77
2024/02/07 11:28:30;;;;;;;2.92;1.60;;;;;;;;;;5048229;28;20051;-77
2024/02/07 11:30:58;;;;;;;1.95;1.10;;;;;;;;;;5047942;28;20083;-77
2024/02/07 11:33:25;;;;;;;1.48;1.15;;;;;;;;;;5029852;28;20041;-78
2024/02/07 11:35:52;;;;;;;2.63;1.50;;;;;;;;;;5046334;28;20049;-78
2024/02/07 11:38:20;;;;;;;4.68;1.38;;;;;;;;;;5030326;28;20049;-77
2024/02/07 11:40:46;;;;;;;2.35;1.40;;;;;;;;;;5049523;28;20272;-77
2024/02/07 11:43:20;;;;;;;3.95;1.60;;;;;;;;;;5043275;28;20510;-77
2024/02/07 11:45:47;;;;;;;4.15;1.60;;;;;;;;;;5041968;28;20065;-77
2024/02/07 11:48:18;;;;;;;2.85;1.40;;;;;;;;;;5027476;28;20052;-80
2024/02/07 11:50:47;;;;;;;4.18;1.30;;;;;;;;;;5049516;28;20415;-77
2024/02/07 11:53:20;;;;;;;3.72;1.25;;;;;;;;;;5050948;28;20053;-77
2024/02/07 11:55:50;;;;;;;5.00;1.45;;;;;;;;;;5030273;28;20056;-78
2024/02/07 11:58:20;;;;;;;3.28;1.02;;;;;;;;;;5049302;28;20056;-77
2024/02/07 12:00:47;;;;;;;2.15;1.27;;;;;;;;;;5050951;28;20176;-78
2024/02/07 12:03:15;;;;;;;3.80;2.20;;;;;;;;;;5035762;28;20055;-78
2024/02/07 12:05:42;;;;;;;2.75;1.77;;;;;;;;;;5051486;28;20065;-78
2024/02/07 12:08:09;;;;;;;2.08;1.20;;;;;;;;;;5047450;28;20048;-78
2024/02/07 12:10:36;;;;;;;1.63;1.13;;;;;;;;;;5050594;28;20795;-78
2024/02/07 12:13:03;;;;;;;2.33;1.33;;;;;;;;;;5063474;28;20059;-77
2024/02/07 12:15:31;;;;;;;2.05;1.00;;;;;;;;;;5049314;28;20091;-77
2024/02/07 12:17:58;;;;;;;0.90;0.65;;;;;;;;;;5042440;28;20444;-77
2024/02/07 12:20:27;;;;;;;2.55;0.70;;;;;;;;;;5022109;28;20049;-78
2024/02/07 12:23:00;;;;;;;1.85;0.70;;;;;;;;;;5048749;28;20055;-77
2024/02/07 12:25:27;;;;;;;2.65;1.00;;;;;;;;;;5045294;28;20052;-77
2024/02/07 12:27:54;;;;;;;1.05;0.80;;;;;;;;;;5038949;28;20053;-77
2024/02/07 12:30:21;;;;;;;2.97;1.67;;;;;;;;;;5044980;28;20069;-77
2024/02/07 12:32:47;;;;;;;1.27;0.80;;;;;;;;;;5048442;28;20045;-77
2024/02/07 12:35:14;;;;;;;1.80;0.73;;;;;;;;;;5044606;28;20055;-77
2024/02/07 12:37:41;;;;;;;2.95;0.70;;;;;;;;;;5049088;28;20098;-77
2024/02/07 12:40:14;;;;;;;4.68;0.82;;;;;;;;;;5060034;28;20041;-77
2024/02/07 12:42:41;;;;;;;1.17;0.70;;;;;;;;;;5039771;28;20523;-77
2024/02/07 12:45:13;;;;;;;1.50;0.80;;;;;;;;;;5040053;28;20045;-76
2024/02/07 12:47:41;;;;;;;1.45;0.47;;;;;;;;;;5023870;28;20050;-77
2024/02/07 12:50:08;;;;;;;0.95;0.40;;;;;;;;;;5036942;28;20049;-77
2024/02/07 12:52:35;;;;;;;3.90;0.63;;;;;;;;;;5040590;28;20060;-77
2024/02/07 12:55:01;;;;;;;1.27;0.82;;;;;;;;;;5040957;28;20052;-77
2024/02/07 12:57:30;;;;;;;2.03;0.60;;;;;;;;;;5043320;28;20092;-77
2024/02/07 13:00:06;;;;;;;2.25;0.45;;;;;;;;;;5046481;28;20057;-77
2024/02/07 13:02:33;;;;;;;0.93;0.63;;;;;;;;;;5027434;28;20053;-77
2024/02/07 13:04:59;;;;;;;0.80;0.70;;;;;;;;;;5062438;28;20114;-77
2024/02/07 13:07:26;;;;;;;1.17;0.70;;;;;;;;;;5043671;28;20528;-76
2024/02/07 13:09:53;;;;;;;0.68;0.50;;;;;;;;;;5043495;28;20433;-77
2024/02/07 13:12:20;;;;;;;1.75;1.00;;;;;;;;;;5045687;28;20517;-76
2024/02/07 13:14:55;;;;;;;0.60;0.57;;;;;;;;;;5026314;28;20048;-77
2024/02/07 13:17:22;;;;;;;0.50;0.40;;;;;;;;;;5039210;28;20072;-77
2024/02/07 13:19:49;;;;;;;0.50;0.50;;;;;;;;;;5037167;28;20053;-77
2024/02/07 13:22:15;;;;;;;0.80;0.73;;;;;;;;;;5047404;28;20098;-77
2024/02/07 13:24:42;;;;;;;0.80;0.70;;;;;;;;;;5031457;28;20053;-77
2024/02/07 13:27:09;;;;;;;1.10;0.80;;;;;;;;;;5044920;28;20060;-77
2024/02/07 13:29:39;;;;;;;6.38;0.95;;;;;;;;;;5048357;28;20053;-77
2024/02/07 13:32:10;;;;;;;0.88;0.63;;;;;;;;;;5046905;28;20507;-76
2024/02/07 13:34:37;;;;;;;0.82;0.65;;;;;;;;;;5044346;28;20049;-76
2024/02/07 13:37:04;;;;;;;1.88;0.95;;;;;;;;;;5025331;28;20272;-75
2024/02/07 13:39:31;;;;;;;1.00;0.60;;;;;;;;;;5046176;28;20052;-76
2024/02/07 13:41:58;;;;;;;2.47;0.63;;;;;;;;;;5056319;28;20052;-76
2024/02/07 13:44:25;;;;;;;1.90;0.68;;;;;;;;;;5047342;28;20049;-77
2024/02/07 13:46:51;;;;;;;1.02;0.77;;;;;;;;;;5037478;28;20068;-78
2024/02/07 13:49:18;;;;;;;0.73;0.70;;;;;;;;;;5041945;28;20511;-76
2024/02/07 13:51:45;;;;;;;1.73;1.02;;;;;;;;;;5041394;28;20053;-76
2024/02/07 13:54:11;;;;;;;0.82;0.60;;;;;;;;;;5046191;28;20061;-76
2024/02/07 13:56:40;;;;;;;2.40;0.65;;;;;;;;;;5045637;28;20261;-78
2024/02/07 13:59:07;;;;;;;1.73;1.27;;;;;;;;;;5051537;28;20064;-76
2024/02/07 14:01:34;;;;;;;1.55;0.77;;;;;;;;;;5048922;28;20151;-76
2024/02/07 14:04:03;;;;;;;1.80;1.23;;;;;;;;;;5058794;28;20056;-77
2024/02/07 14:06:31;;;;;;;2.53;0.80;;;;;;;;;;5046977;28;20053;-76
2024/02/07 14:08:58;;;;;;;2.45;1.58;;;;;;;;;;5062745;28;20414;-77
2024/02/07 14:11:25;;;;;;;1.00;0.75;;;;;;;;;;5047420;28;20422;-77
2024/02/07 14:13:53;;;;;;;1.20;0.73;;;;;;;;;;5049790;28;20552;-77
2024/02/07 14:16:19;;;;;;;0.93;0.55;;;;;;;;;;5042583;28;20045;-77
2024/02/07 14:18:46;;;;;;;2.53;0.90;;;;;;;;;;5047184;28;20053;-77
2024/02/07 14:21:13;;;;;;;1.25;0.80;;;;;;;;;;5052756;28;20048;-77
2024/02/07 14:23:40;;;;;;;2.05;0.80;;;;;;;;;;5061814;28;20063;-77
2024/02/07 14:26:07;;;;;;;2.05;0.80;;;;;;;;;;5048225;28;20057;-76
2024/02/07 14:28:33;;;;;;;1.60;0.85;;;;;;;;;;5064869;28;20590;-77
2024/02/07 14:31:01;;;;;;;1.40;0.70;;;;;;;;;;5068269;28;20451;-77
2024/02/07 14:33:27;;;;;;;1.00;0.85;;;;;;;;;;5031424;28;20053;-77
2024/02/07 14:35:55;;;;;;;4.47;0.90;;;;;;;;;;5049023;28;20052;-77
2024/02/07 14:38:26;;;;;;;2.80;0.90;;;;;;;;;;5029061;28;20059;-77
2024/02/07 14:40:53;;;;;;;0.90;0.90;;;;;;;;;;5050837;28;20048;-76
2024/02/07 14:43:20;;;;;;;2.08;1.10;;;;;;;;;;5044145;28;20406;-77
2024/02/07 14:45:48;;;;;;;3.90;1.65;;;;;;;;;;5048767;28;20055;-77
2024/02/07 14:48:14;;;;;;;3.03;1.50;;;;;;;;;;5049526;28;20063;-77
2024/02/07 14:50:42;;;;;;;5.95;1.88;;;;;;;;;;5049295;28;20060;-77
2024/02/07 14:53:09;;;;;;;2.53;1.02;;;;;;;;;;5049893;28;20107;-77
2024/02/07 14:55:38;;;;;;;1.65;0.70;;;;;;;;;;5024493;28;20065;-77
2024/02/07 14:58:05;;;;;;;1.67;1.00;;;;;;;;;;5028454;28;20084;-76
2024/02/07 15:00:32;;;;;;;1.45;0.85;;;;;;;;;;5046331;28;20057;-77
2024/02/07 15:02:58;;;;;;;0.95;0.88;;;;;;;;;;5064781;28;20099;-76
2024/02/07 15:05:25;;;;;;;1.45;0.85;;;;;;;;;;5048461;28;20049;-77
2024/02/07 15:07:52;;;;;;;1.25;0.80;;;;;;;;;;5028961;28;20060;-77
2024/02/07 15:10:19;;;;;;;1.95;0.73;;;;;;;;;;5051485;28;20045;-76
2024/02/07 15:12:46;;;;;;;0.70;0.50;;;;;;;;;;5044163;28;20103;-77
2024/02/07 15:15:12;;;;;;;1.30;1.00;;;;;;;;;;5048920;28;20521;-77
2024/02/07 15:17:41;;;;;;;2.38;0.77;;;;;;;;;;5047933;28;20083;-77
2024/02/07 15:20:08;;;;;;;2.03;0.60;;;;;;;;;;5041439;28;20049;-77
2024/02/07 15:22:35;;;;;;;0.85;0.57;;;;;;;;;;5043258;28;20061;-77
2024/02/07 15:25:02;;;;;;;1.02;0.80;;;;;;;;;;5022698;28;20056;-76
2024/02/07 15:27:29;;;;;;;1.80;0.82;;;;;;;;;;5047959;28;20056;-76
2024/02/07 15:29:55;;;;;;;2.25;0.95;;;;;;;;;;5048597;28;20076;-77
2024/02/07 15:32:22;;;;;;;2.20;0.70;;;;;;;;;;5045586;28;20045;-76
2024/02/07 15:34:49;;;;;;;0.55;0.52;;;;;;;;;;5049715;28;20076;-76
2024/02/07 15:37:16;;;;;;;0.90;0.65;;;;;;;;;;5044543;28;20041;-77
2024/02/07 15:39:43;;;;;;;1.00;0.90;;;;;;;;;;5049648;28;20102;-77
2024/02/07 15:42:10;;;;;;;1.58;0.90;;;;;;;;;;5042168;28;20049;-77
2024/02/07 15:44:38;;;;;;;3.78;0.95;;;;;;;;;;5038708;28;20179;-77
2024/02/07 15:47:05;;;;;;;2.05;0.70;;;;;;;;;;5037145;28;20053;-77
2024/02/07 15:49:31;;;;;;;1.05;0.80;;;;;;;;;;5046816;28;20057;-77
2024/02/07 15:51:58;;;;;;;1.85;1.02;;;;;;;;;;5041020;28;20044;-77